sensor_id;sensor_type;location;lat;lon;timestamp;temperature;humidity
44229;DHT22;29904;51.058;5.378;2023-10-09T00:00:24;15.10;99.90
44229;DHT22;29904;51.058;5.378;2023-10-09T00:02:57;15.00;99.90
44229;DHT22;29904;51.058;5.378;2023-10-09T00:05:30;15.00;99.90
44229;DHT22;29904;51.058;5.378;2023-10-09T00:08:16;15.00;99.90
44229;DHT22;29904;51.058;5.378;2023-10-09T00:10:44;14.90;99.90
44229;DHT22;29904;51.058;5.378;2023-10-09T00:13:32;14.90;99.90
44229;DHT22;29904;51.058;5.378;2023-10-09T00:16:04;14.90;99.90
44229;DHT22;29904;51.058;5.378;2023-10-09T00:18:42;14.90;99.90
44229;DHT22;29904;51.058;5.378;2023-10-09T00:21:18;14.90;99.90
44229;DHT22;29904;51.058;5.378;2023-10-09T00:23:48;14.80;99.90
44229;DHT22;29904;51.058;5.378;2023-10-09T00:26:25;14.80;99.90
44229;DHT22;29904;51.058;5.378;2023-10-09T00:28:51;14.80;99.90
44229;DHT22;29904;51.058;5.378;2023-10-09T00:31:18;14.80;99.90
44229;DHT22;29904;51.058;5.378;2023-10-09T00:33:55;14.80;99.90
44229;DHT22;29904;51.058;5.378;2023-10-09T00:36:27;14.90;99.90
44229;DHT22;29904;51.058;5.378;2023-10-09T00:38:54;14.90;99.90
44229;DHT22;29904;51.058;5.378;2023-10-09T00:41:20;15.00;99.90
44229;DHT22;29904;51.058;5.378;2023-10-09T00:43:48;15.00;99.90
44229;DHT22;29904;51.058;5.378;2023-10-09T00:46:17;15.10;99.90
44229;DHT22;29904;51.058;5.378;2023-10-09T00:48:55;15.10;99.90
44229;DHT22;29904;51.058;5.378;2023-10-09T00:51:24;15.10;99.90
44229;DHT22;29904;51.058;5.378;2023-10-09T00:53:55;15.20;99.90
44229;DHT22;29904;51.058;5.378;2023-10-09T00:56:23;15.30;99.90
44229;DHT22;29904;51.058;5.378;2023-10-09T00:58:59;15.30;99.90
44229;DHT22;29904;51.058;5.378;2023-10-09T01:01:32;15.30;99.90
44229;DHT22;29904;51.058;5.378;2023-10-09T01:04:03;15.30;99.90
44229;DHT22;29904;51.058;5.378;2023-10-09T01:06:44;15.40;99.90
44229;DHT22;29904;51.058;5.378;2023-10-09T01:09:14;15.40;99.90
44229;DHT22;29904;51.058;5.378;2023-10-09T01:11:42;15.40;99.90
44229;DHT22;29904;51.058;5.378;2023-10-09T01:14:15;15.40;99.90
44229;DHT22;29904;51.058;5.378;2023-10-09T01:16:41;15.40;99.90
44229;DHT22;29904;51.058;5.378;2023-10-09T01:19:12;15.50;99.90
44229;DHT22;29904;51.058;5.378;2023-10-09T01:21:51;15.50;99.90
44229;DHT22;29904;51.058;5.378;2023-10-09T01:24:19;15.40;99.90
44229;DHT22;29904;51.058;5.378;2023-10-09T01:26:46;15.40;99.90
44229;DHT22;29904;51.058;5.378;2023-10-09T01:29:22;15.40;99.90
44229;DHT22;29904;51.058;5.378;2023-10-09T01:31:55;15.40;99.90
44229;DHT22;29904;51.058;5.378;2023-10-09T01:34:27;15.40;99.90
44229;DHT22;29904;51.058;5.378;2023-10-09T01:37:20;15.40;99.90
44229;DHT22;29904;51.058;5.378;2023-10-09T01:39:58;15.40;99.90
44229;DHT22;29904;51.058;5.378;2023-10-09T01:42:26;15.40;99.90
44229;DHT22;29904;51.058;5.378;2023-10-09T01:45:12;15.50;99.90
44229;DHT22;29904;51.058;5.378;2023-10-09T01:47:41;15.50;99.90
44229;DHT22;29904;51.058;5.378;2023-10-09T01:50:11;15.50;99.90
44229;DHT22;29904;51.058;5.378;2023-10-09T01:52:47;15.50;99.90
44229;DHT22;29904;51.058;5.378;2023-10-09T01:55:13;15.50;99.90
44229;DHT22;29904;51.058;5.378;2023-10-09T01:57:53;15.50;99.90
44229;DHT22;29904;51.058;5.378;2023-10-09T02:00:19;15.50;99.90
44229;DHT22;29904;51.058;5.378;2023-10-09T02:02:50;15.50;99.90
44229;DHT22;29904;51.058;5.378;2023-10-09T02:05:17;15.50;99.90
44229;DHT22;29904;51.058;5.378;2023-10-09T02:07:43;15.50;99.90
44229;DHT22;29904;51.058;5.378;2023-10-09T02:10:22;15.50;99.90
44229;DHT22;29904;51.058;5.378;2023-10-09T02:12:56;15.50;99.90
44229;DHT22;29904;51.058;5.378;2023-10-09T02:15:30;15.50;99.90
44229;DHT22;29904;51.058;5.378;2023-10-09T02:18:22;15.50;99.90
44229;DHT22;29904;51.058;5.378;2023-10-09T02:21:07;15.50;99.90
44229;DHT22;29904;51.058;5.378;2023-10-09T02:23:34;15.50;99.90
44229;DHT22;29904;51.058;5.378;2023-10-09T02:26:12;15.50;99.90
44229;DHT22;29904;51.058;5.378;2023-10-09T02:28:55;15.40;99.90
44229;DHT22;29904;51.058;5.378;2023-10-09T02:31:40;15.40;99.90
44229;DHT22;29904;51.058;5.378;2023-10-09T02:34:09;15.40;99.90
44229;DHT22;29904;51.058;5.378;2023-10-09T02:36:41;15.40;99.90
44229;DHT22;29904;51.058;5.378;2023-10-09T02:39:10;15.40;99.90
44229;DHT22;29904;51.058;5.378;2023-10-09T02:41:52;15.50;99.90
44229;DHT22;29904;51.058;5.378;2023-10-09T02:44:27;15.40;99.90
44229;DHT22;29904;51.058;5.378;2023-10-09T02:46:55;15.40;99.90
44229;DHT22;29904;51.058;5.378;2023-10-09T02:49:24;15.50;99.90
44229;DHT22;29904;51.058;5.378;2023-10-09T02:51:51;15.50;99.90
44229;DHT22;29904;51.058;5.378;2023-10-09T02:54:20;15.50;99.90
44229;DHT22;29904;51.058;5.378;2023-10-09T02:56:51;15.60;99.90
44229;DHT22;29904;51.058;5.378;2023-10-09T02:59:33;15.60;99.90
44229;DHT22;29904;51.058;5.378;2023-10-09T03:01:58;15.60;99.90
44229;DHT22;29904;51.058;5.378;2023-10-09T03:04:27;15.60;99.90
44229;DHT22;29904;51.058;5.378;2023-10-09T03:06:59;15.60;99.90
44229;DHT22;29904;51.058;5.378;2023-10-09T03:09:25;15.60;99.90
44229;DHT22;29904;51.058;5.378;2023-10-09T03:12:01;15.60;99.90
44229;DHT22;29904;51.058;5.378;2023-10-09T03:14:34;15.60;99.90
44229;DHT22;29904;51.058;5.378;2023-10-09T03:17:07;15.60;99.90
44229;DHT22;29904;51.058;5.378;2023-10-09T03:19:37;15.60;99.90
44229;DHT22;29904;51.058;5.378;2023-10-09T03:22:04;15.60;99.90
44229;DHT22;29904;51.058;5.378;2023-10-09T03:24:32;15.60;99.90
44229;DHT22;29904;51.058;5.378;2023-10-09T03:26:57;15.50;99.90
44229;DHT22;29904;51.058;5.378;2023-10-09T03:29:24;15.50;99.90
44229;DHT22;29904;51.058;5.378;2023-10-09T03:31:52;15.50;99.90
44229;DHT22;29904;51.058;5.378;2023-10-09T03:34:21;15.60;99.90
44229;DHT22;29904;51.058;5.378;2023-10-09T03:36:47;15.60;99.90
44229;DHT22;29904;51.058;5.378;2023-10-09T03:39:17;15.60;99.90
44229;DHT22;29904;51.058;5.378;2023-10-09T03:42:04;15.60;99.90
44229;DHT22;29904;51.058;5.378;2023-10-09T03:44:36;15.60;99.90
44229;DHT22;29904;51.058;5.378;2023-10-09T03:47:07;15.60;99.90
44229;DHT22;29904;51.058;5.378;2023-10-09T03:49:35;15.60;99.90
44229;DHT22;29904;51.058;5.378;2023-10-09T03:52:05;15.60;99.90
44229;DHT22;29904;51.058;5.378;2023-10-09T03:54:33;15.60;99.90
44229;DHT22;29904;51.058;5.378;2023-10-09T03:57:01;15.60;99.90
44229;DHT22;29904;51.058;5.378;2023-10-09T03:59:27;15.60;99.90
44229;DHT22;29904;51.058;5.378;2023-10-09T04:01:57;15.60;99.90
44229;DHT22;29904;51.058;5.378;2023-10-09T04:04:24;15.60;99.90
44229;DHT22;29904;51.058;5.378;2023-10-09T04:06:52;15.60;99.90
44229;DHT22;29904;51.058;5.378;2023-10-09T04:09:18;15.60;99.90
44229;DHT22;29904;51.058;5.378;2023-10-09T04:11:44;15.60;99.90
44229;DHT22;29904;51.058;5.378;2023-10-09T04:14:12;15.60;99.90
44229;DHT22;29904;51.058;5.378;2023-10-09T04:16:49;15.60;99.90
44229;DHT22;29904;51.058;5.378;2023-10-09T04:19:17;15.60;99.90
44229;DHT22;29904;51.058;5.378;2023-10-09T04:21:48;15.60;99.90
44229;DHT22;29904;51.058;5.378;2023-10-09T04:24:14;15.60;99.90
44229;DHT22;29904;51.058;5.378;2023-10-09T04:26:45;15.60;99.90
44229;DHT22;29904;51.058;5.378;2023-10-09T04:29:12;15.60;99.90
44229;DHT22;29904;51.058;5.378;2023-10-09T04:32:00;15.60;99.90
44229;DHT22;29904;51.058;5.378;2023-10-09T04:34:27;15.60;99.90
44229;DHT22;29904;51.058;5.378;2023-10-09T04:37:02;15.60;99.90
44229;DHT22;29904;51.058;5.378;2023-10-09T04:39:40;15.70;99.90
44229;DHT22;29904;51.058;5.378;2023-10-09T04:42:15;15.70;99.90
44229;DHT22;29904;51.058;5.378;2023-10-09T04:44:50;15.70;99.90
44229;DHT22;29904;51.058;5.378;2023-10-09T04:47:28;15.70;99.90
44229;DHT22;29904;51.058;5.378;2023-10-09T04:50:12;15.60;99.90
44229;DHT22;29904;51.058;5.378;2023-10-09T04:53:01;15.50;99.90
44229;DHT22;29904;51.058;5.378;2023-10-09T04:55:41;15.60;99.90
44229;DHT22;29904;51.058;5.378;2023-10-09T04:58:20;15.60;99.90
44229;DHT22;29904;51.058;5.378;2023-10-09T05:00:49;15.60;99.90
44229;DHT22;29904;51.058;5.378;2023-10-09T05:03:30;15.70;99.90
44229;DHT22;29904;51.058;5.378;2023-10-09T05:06:13;15.60;99.90
44229;DHT22;29904;51.058;5.378;2023-10-09T05:09:07;15.70;99.90
44229;DHT22;29904;51.058;5.378;2023-10-09T05:11:35;15.70;99.90
44229;DHT22;29904;51.058;5.378;2023-10-09T05:14:21;15.70;99.90
44229;DHT22;29904;51.058;5.378;2023-10-09T05:17:04;15.60;99.90
44229;DHT22;29904;51.058;5.378;2023-10-09T05:19:32;15.60;99.90
44229;DHT22;29904;51.058;5.378;2023-10-09T05:22:17;15.60;99.90
44229;DHT22;29904;51.058;5.378;2023-10-09T05:24:56;15.60;99.90
44229;DHT22;29904;51.058;5.378;2023-10-09T05:27:22;15.60;99.90
44229;DHT22;29904;51.058;5.378;2023-10-09T05:30:07;15.60;99.90
44229;DHT22;29904;51.058;5.378;2023-10-09T05:32:53;15.60;99.90
44229;DHT22;29904;51.058;5.378;2023-10-09T05:35:23;15.60;99.90
44229;DHT22;29904;51.058;5.378;2023-10-09T05:38:08;15.50;99.90
44229;DHT22;29904;51.058;5.378;2023-10-09T05:40:50;15.60;99.90
44229;DHT22;29904;51.058;5.378;2023-10-09T05:43:20;15.50;99.90
44229;DHT22;29904;51.058;5.378;2023-10-09T05:46:04;15.50;99.90
44229;DHT22;29904;51.058;5.378;2023-10-09T05:48:35;15.50;99.90
44229;DHT22;29904;51.058;5.378;2023-10-09T05:51:04;15.50;99.90
44229;DHT22;29904;51.058;5.378;2023-10-09T05:53:38;15.50;99.90
44229;DHT22;29904;51.058;5.378;2023-10-09T05:56:10;15.50;99.90
44229;DHT22;29904;51.058;5.378;2023-10-09T05:58:56;15.50;99.90
44229;DHT22;29904;51.058;5.378;2023-10-09T06:01:40;15.60;99.90
44229;DHT22;29904;51.058;5.378;2023-10-09T06:04:28;15.60;99.90
44229;DHT22;29904;51.058;5.378;2023-10-09T06:07:20;15.60;99.90
44229;DHT22;29904;51.058;5.378;2023-10-09T06:09:52;15.60;99.90
44229;DHT22;29904;51.058;5.378;2023-10-09T06:12:22;15.60;99.90
44229;DHT22;29904;51.058;5.378;2023-10-09T06:15:15;15.60;99.90
44229;DHT22;29904;51.058;5.378;2023-10-09T06:17:59;15.70;99.90
44229;DHT22;29904;51.058;5.378;2023-10-09T06:20:49;15.70;99.90
44229;DHT22;29904;51.058;5.378;2023-10-09T06:23:56;15.70;99.90
44229;DHT22;29904;51.058;5.378;2023-10-09T06:26:47;15.70;99.90
44229;DHT22;29904;51.058;5.378;2023-10-09T06:29:29;15.80;99.90
44229;DHT22;29904;51.058;5.378;2023-10-09T06:32:06;15.80;99.90
44229;DHT22;29904;51.058;5.378;2023-10-09T06:34:48;15.80;99.90
44229;DHT22;29904;51.058;5.378;2023-10-09T06:37:37;15.80;99.90
44229;DHT22;29904;51.058;5.378;2023-10-09T06:40:22;15.90;99.90
44229;DHT22;29904;51.058;5.378;2023-10-09T06:43:10;15.90;99.90
44229;DHT22;29904;51.058;5.378;2023-10-09T06:45:42;15.90;99.90
44229;DHT22;29904;51.058;5.378;2023-10-09T06:48:16;16.00;99.90
44229;DHT22;29904;51.058;5.378;2023-10-09T06:51:07;16.00;99.90
44229;DHT22;29904;51.058;5.378;2023-10-09T06:53:54;16.00;99.90
44229;DHT22;29904;51.058;5.378;2023-10-09T07:01:28;16.10;99.90
44229;DHT22;29904;51.058;5.378;2023-10-09T07:04:02;16.10;99.90
44229;DHT22;29904;51.058;5.378;2023-10-09T07:06:47;16.10;99.90
44229;DHT22;29904;51.058;5.378;2023-10-09T07:09:14;16.10;99.90
44229;DHT22;29904;51.058;5.378;2023-10-09T07:11:45;16.20;99.90
44229;DHT22;29904;51.058;5.378;2023-10-09T07:14:23;16.20;99.90
44229;DHT22;29904;51.058;5.378;2023-10-09T07:16:56;16.20;99.90
44229;DHT22;29904;51.058;5.378;2023-10-09T07:19:29;16.30;99.90
44229;DHT22;29904;51.058;5.378;2023-10-09T07:22:10;16.30;99.90
44229;DHT22;29904;51.058;5.378;2023-10-09T07:27:19;16.40;99.90
44229;DHT22;29904;51.058;5.378;2023-10-09T07:30:09;16.40;99.90
44229;DHT22;29904;51.058;5.378;2023-10-09T07:35:34;16.50;99.90
44229;DHT22;29904;51.058;5.378;2023-10-09T07:38:15;16.60;99.90
44229;DHT22;29904;51.058;5.378;2023-10-09T07:40:46;16.60;99.90
44229;DHT22;29904;51.058;5.378;2023-10-09T07:43:24;16.80;99.90
44229;DHT22;29904;51.058;5.378;2023-10-09T07:46:13;16.80;99.90
44229;DHT22;29904;51.058;5.378;2023-10-09T07:49:05;17.00;99.90
44229;DHT22;29904;51.058;5.378;2023-10-09T07:51:35;17.00;99.90
44229;DHT22;29904;51.058;5.378;2023-10-09T07:54:02;17.10;99.90
44229;DHT22;29904;51.058;5.378;2023-10-09T07:56:38;17.10;99.90
44229;DHT22;29904;51.058;5.378;2023-10-09T07:59:07;17.30;99.90
44229;DHT22;29904;51.058;5.378;2023-10-09T08:01:49;17.40;99.90
44229;DHT22;29904;51.058;5.378;2023-10-09T08:04:19;17.50;99.90
44229;DHT22;29904;51.058;5.378;2023-10-09T08:07:07;17.50;99.90
44229;DHT22;29904;51.058;5.378;2023-10-09T08:09:38;17.50;99.90
44229;DHT22;29904;51.058;5.378;2023-10-09T08:12:14;17.40;99.90
44229;DHT22;29904;51.058;5.378;2023-10-09T08:14:58;17.30;99.90
44229;DHT22;29904;51.058;5.378;2023-10-09T08:20:16;17.30;99.90
44229;DHT22;29904;51.058;5.378;2023-10-09T08:22:43;17.40;99.90
44229;DHT22;29904;51.058;5.378;2023-10-09T08:25:12;17.40;99.90
44229;DHT22;29904;51.058;5.378;2023-10-09T08:28:01;17.50;99.90
44229;DHT22;29904;51.058;5.378;2023-10-09T08:30:47;17.60;99.90
44229;DHT22;29904;51.058;5.378;2023-10-09T08:33:28;17.60;99.90
44229;DHT22;29904;51.058;5.378;2023-10-09T08:36:07;17.70;99.90
44229;DHT22;29904;51.058;5.378;2023-10-09T08:38:33;17.80;99.90
44229;DHT22;29904;51.058;5.378;2023-10-09T08:41:12;17.70;99.90
44229;DHT22;29904;51.058;5.378;2023-10-09T08:43:55;17.80;99.90
44229;DHT22;29904;51.058;5.378;2023-10-09T08:46:26;17.80;99.90
44229;DHT22;29904;51.058;5.378;2023-10-09T08:48:57;17.90;99.90
44229;DHT22;29904;51.058;5.378;2023-10-09T08:51:25;17.90;99.90
44229;DHT22;29904;51.058;5.378;2023-10-09T08:53:51;18.10;99.90
44229;DHT22;29904;51.058;5.378;2023-10-09T08:56:19;18.10;99.90
44229;DHT22;29904;51.058;5.378;2023-10-09T08:58:58;18.20;99.90
44229;DHT22;29904;51.058;5.378;2023-10-09T09:01:29;18.30;99.90
44229;DHT22;29904;51.058;5.378;2023-10-09T09:03:59;18.40;99.90
44229;DHT22;29904;51.058;5.378;2023-10-09T09:06:36;18.60;99.90
44229;DHT22;29904;51.058;5.378;2023-10-09T09:09:11;18.70;99.90
44229;DHT22;29904;51.058;5.378;2023-10-09T09:11:41;18.80;99.90
44229;DHT22;29904;51.058;5.378;2023-10-09T09:14:18;18.90;99.90
44229;DHT22;29904;51.058;5.378;2023-10-09T09:16:47;19.00;99.90
44229;DHT22;29904;51.058;5.378;2023-10-09T09:19:17;19.20;99.90
44229;DHT22;29904;51.058;5.378;2023-10-09T09:21:57;19.30;99.90
44229;DHT22;29904;51.058;5.378;2023-10-09T09:24:25;19.40;99.90
44229;DHT22;29904;51.058;5.378;2023-10-09T09:27:01;19.50;99.90
44229;DHT22;29904;51.058;5.378;2023-10-09T09:29:43;19.60;99.90
44229;DHT22;29904;51.058;5.378;2023-10-09T09:32:29;19.70;99.90
44229;DHT22;29904;51.058;5.378;2023-10-09T09:35:03;19.80;99.90
44229;DHT22;29904;51.058;5.378;2023-10-09T09:37:32;19.90;99.90
44229;DHT22;29904;51.058;5.378;2023-10-09T09:40:04;19.90;99.90
44229;DHT22;29904;51.058;5.378;2023-10-09T09:42:58;20.00;99.90
44229;DHT22;29904;51.058;5.378;2023-10-09T09:45:38;20.00;99.90
44229;DHT22;29904;51.058;5.378;2023-10-09T09:48:12;20.10;99.90
44229;DHT22;29904;51.058;5.378;2023-10-09T09:50:43;20.20;99.90
44229;DHT22;29904;51.058;5.378;2023-10-09T09:53:14;20.30;99.90
44229;DHT22;29904;51.058;5.378;2023-10-09T09:56:03;20.40;99.90
44229;DHT22;29904;51.058;5.378;2023-10-09T09:58:30;20.50;99.90
44229;DHT22;29904;51.058;5.378;2023-10-09T10:01:09;20.60;99.90
44229;DHT22;29904;51.058;5.378;2023-10-09T10:03:45;20.70;99.90
44229;DHT22;29904;51.058;5.378;2023-10-09T10:06:13;20.70;99.90
44229;DHT22;29904;51.058;5.378;2023-10-09T10:08:42;20.60;99.90
44229;DHT22;29904;51.058;5.378;2023-10-09T10:11:41;20.70;99.90
44229;DHT22;29904;51.058;5.378;2023-10-09T10:14:08;20.80;99.90
44229;DHT22;29904;51.058;5.378;2023-10-09T10:17:04;20.80;99.90
44229;DHT22;29904;51.058;5.378;2023-10-09T10:22:28;20.90;99.90
44229;DHT22;29904;51.058;5.378;2023-10-09T10:24:58;20.90;99.90
44229;DHT22;29904;51.058;5.378;2023-10-09T10:27:28;21.00;99.90
44229;DHT22;29904;51.058;5.378;2023-10-09T10:35:20;21.10;99.90
44229;DHT22;29904;51.058;5.378;2023-10-09T10:37:58;21.10;99.90
44229;DHT22;29904;51.058;5.378;2023-10-09T10:40:51;21.30;99.90
44229;DHT22;29904;51.058;5.378;2023-10-09T10:43:24;21.40;99.90
44229;DHT22;29904;51.058;5.378;2023-10-09T10:46:10;21.50;99.90
44229;DHT22;29904;51.058;5.378;2023-10-09T10:48:52;21.50;99.90
44229;DHT22;29904;51.058;5.378;2023-10-09T10:51:38;21.50;99.90
44229;DHT22;29904;51.058;5.378;2023-10-09T10:54:05;21.50;99.90
44229;DHT22;29904;51.058;5.378;2023-10-09T10:56:49;21.50;99.90
44229;DHT22;29904;51.058;5.378;2023-10-09T10:59:15;21.60;99.90
44229;DHT22;29904;51.058;5.378;2023-10-09T11:01:49;21.60;99.90
44229;DHT22;29904;51.058;5.378;2023-10-09T11:04:28;21.60;99.90
44229;DHT22;29904;51.058;5.378;2023-10-09T11:07:10;21.70;99.90
44229;DHT22;29904;51.058;5.378;2023-10-09T11:10:01;21.80;99.90
44229;DHT22;29904;51.058;5.378;2023-10-09T11:12:41;21.70;99.90
44229;DHT22;29904;51.058;5.378;2023-10-09T11:15:08;21.80;99.90
44229;DHT22;29904;51.058;5.378;2023-10-09T11:18:09;21.90;99.90
44229;DHT22;29904;51.058;5.378;2023-10-09T11:20:43;21.90;99.90
44229;DHT22;29904;51.058;5.378;2023-10-09T11:23:24;22.00;99.90
44229;DHT22;29904;51.058;5.378;2023-10-09T11:26:00;22.00;99.90
44229;DHT22;29904;51.058;5.378;2023-10-09T11:28:45;22.10;99.90
44229;DHT22;29904;51.058;5.378;2023-10-09T11:31:23;22.10;99.90
44229;DHT22;29904;51.058;5.378;2023-10-09T11:33:52;22.10;99.90
44229;DHT22;29904;51.058;5.378;2023-10-09T11:36:21;22.20;99.90
44229;DHT22;29904;51.058;5.378;2023-10-09T11:38:58;22.40;99.90
44229;DHT22;29904;51.058;5.378;2023-10-09T11:41:43;22.30;99.90
44229;DHT22;29904;51.058;5.378;2023-10-09T11:44:15;22.20;99.90
44229;DHT22;29904;51.058;5.378;2023-10-09T11:47:00;22.10;99.90
44229;DHT22;29904;51.058;5.378;2023-10-09T11:49:52;22.30;99.90
44229;DHT22;29904;51.058;5.378;2023-10-09T11:52:28;22.30;99.90
44229;DHT22;29904;51.058;5.378;2023-10-09T11:55:23;22.40;99.90
44229;DHT22;29904;51.058;5.378;2023-10-09T11:57:51;22.40;99.90
44229;DHT22;29904;51.058;5.378;2023-10-09T12:00:17;22.50;99.90
44229;DHT22;29904;51.058;5.378;2023-10-09T12:02:55;22.60;99.90
44229;DHT22;29904;51.058;5.378;2023-10-09T12:05:21;22.50;99.90
44229;DHT22;29904;51.058;5.378;2023-10-09T12:07:49;22.60;99.90
44229;DHT22;29904;51.058;5.378;2023-10-09T12:10:23;22.60;99.90
44229;DHT22;29904;51.058;5.378;2023-10-09T12:12:55;22.60;99.90
44229;DHT22;29904;51.058;5.378;2023-10-09T12:15:24;22.60;99.90
44229;DHT22;29904;51.058;5.378;2023-10-09T12:18:05;22.60;99.90
44229;DHT22;29904;51.058;5.378;2023-10-09T12:20:35;22.60;99.90
44229;DHT22;29904;51.058;5.378;2023-10-09T12:23:02;22.50;99.90
44229;DHT22;29904;51.058;5.378;2023-10-09T12:25:32;22.50;99.90
44229;DHT22;29904;51.058;5.378;2023-10-09T12:28:01;22.50;99.90
44229;DHT22;29904;51.058;5.378;2023-10-09T12:30:28;22.50;99.90
44229;DHT22;29904;51.058;5.378;2023-10-09T12:32:55;22.50;99.90
44229;DHT22;29904;51.058;5.378;2023-10-09T12:35:25;22.50;99.90
44229;DHT22;29904;51.058;5.378;2023-10-09T12:37:55;22.50;99.90
44229;DHT22;29904;51.058;5.378;2023-10-09T12:40:24;22.60;99.90
44229;DHT22;29904;51.058;5.378;2023-10-09T12:42:53;22.60;99.90
44229;DHT22;29904;51.058;5.378;2023-10-09T12:45:19;22.50;99.90
44229;DHT22;29904;51.058;5.378;2023-10-09T12:47:52;22.40;99.90
44229;DHT22;29904;51.058;5.378;2023-10-09T12:50:21;22.40;99.90
44229;DHT22;29904;51.058;5.378;2023-10-09T12:52:56;22.40;99.90
44229;DHT22;29904;51.058;5.378;2023-10-09T12:55:24;22.40;99.90
44229;DHT22;29904;51.058;5.378;2023-10-09T12:57:59;22.40;99.90
44229;DHT22;29904;51.058;5.378;2023-10-09T13:00:26;22.30;99.90
44229;DHT22;29904;51.058;5.378;2023-10-09T13:02:52;22.30;99.90
44229;DHT22;29904;51.058;5.378;2023-10-09T13:05:20;22.20;99.90
44229;DHT22;29904;51.058;5.378;2023-10-09T13:07:53;22.10;99.90
44229;DHT22;29904;51.058;5.378;2023-10-09T13:10:23;22.10;99.90
44229;DHT22;29904;51.058;5.378;2023-10-09T13:12:49;22.20;99.90
44229;DHT22;29904;51.058;5.378;2023-10-09T13:15:21;22.20;99.90
44229;DHT22;29904;51.058;5.378;2023-10-09T13:17:47;22.20;99.90
44229;DHT22;29904;51.058;5.378;2023-10-09T13:20:12;22.30;99.90
44229;DHT22;29904;51.058;5.378;2023-10-09T13:22:39;22.20;99.90
44229;DHT22;29904;51.058;5.378;2023-10-09T13:25:09;22.20;99.90
44229;DHT22;29904;51.058;5.378;2023-10-09T13:27:44;22.30;99.90
44229;DHT22;29904;51.058;5.378;2023-10-09T13:30:18;22.30;99.90
44229;DHT22;29904;51.058;5.378;2023-10-09T13:32:50;22.30;99.90
44229;DHT22;29904;51.058;5.378;2023-10-09T13:35:18;22.40;99.90
44229;DHT22;29904;51.058;5.378;2023-10-09T13:37:45;22.30;99.90
44229;DHT22;29904;51.058;5.378;2023-10-09T13:40:22;22.40;99.90
44229;DHT22;29904;51.058;5.378;2023-10-09T13:42:55;22.40;99.90
44229;DHT22;29904;51.058;5.378;2023-10-09T13:45:29;22.40;99.90
44229;DHT22;29904;51.058;5.378;2023-10-09T13:47:56;22.40;99.90
44229;DHT22;29904;51.058;5.378;2023-10-09T13:50:26;22.40;99.90
44229;DHT22;29904;51.058;5.378;2023-10-09T13:53:00;22.40;99.90
44229;DHT22;29904;51.058;5.378;2023-10-09T13:55:28;22.40;99.90
44229;DHT22;29904;51.058;5.378;2023-10-09T13:57:58;22.30;99.90
44229;DHT22;29904;51.058;5.378;2023-10-09T14:00:24;22.40;99.90
44229;DHT22;29904;51.058;5.378;2023-10-09T14:03:01;22.30;99.90
44229;DHT22;29904;51.058;5.378;2023-10-09T14:05:37;22.40;99.90
44229;DHT22;29904;51.058;5.378;2023-10-09T14:08:20;22.40;99.90
44229;DHT22;29904;51.058;5.378;2023-10-09T14:10:51;22.50;99.90
44229;DHT22;29904;51.058;5.378;2023-10-09T14:13:17;22.50;99.90
44229;DHT22;29904;51.058;5.378;2023-10-09T14:15:53;22.60;99.90
44229;DHT22;29904;51.058;5.378;2023-10-09T14:18:21;22.60;99.90
44229;DHT22;29904;51.058;5.378;2023-10-09T14:20:46;22.50;99.90
44229;DHT22;29904;51.058;5.378;2023-10-09T14:23:14;22.40;99.90
44229;DHT22;29904;51.058;5.378;2023-10-09T14:25:48;22.30;99.90
44229;DHT22;29904;51.058;5.378;2023-10-09T14:28:15;22.30;99.90
44229;DHT22;29904;51.058;5.378;2023-10-09T14:30:44;22.20;99.90
44229;DHT22;29904;51.058;5.378;2023-10-09T14:33:14;22.20;99.90
44229;DHT22;29904;51.058;5.378;2023-10-09T14:35:48;22.20;99.90
44229;DHT22;29904;51.058;5.378;2023-10-09T14:38:14;22.10;99.90
44229;DHT22;29904;51.058;5.378;2023-10-09T14:40:48;22.00;99.90
44229;DHT22;29904;51.058;5.378;2023-10-09T14:43:15;21.90;99.90
44229;DHT22;29904;51.058;5.378;2023-10-09T14:45:50;21.80;99.90
44229;DHT22;29904;51.058;5.378;2023-10-09T14:48:19;21.60;99.90
44229;DHT22;29904;51.058;5.378;2023-10-09T14:50:52;21.50;99.90
44229;DHT22;29904;51.058;5.378;2023-10-09T14:53:25;21.40;99.90
44229;DHT22;29904;51.058;5.378;2023-10-09T14:55:59;21.30;99.90
44229;DHT22;29904;51.058;5.378;2023-10-09T14:58:29;21.30;99.90
44229;DHT22;29904;51.058;5.378;2023-10-09T15:00:56;21.20;99.90
44229;DHT22;29904;51.058;5.378;2023-10-09T15:03:24;21.20;99.90
44229;DHT22;29904;51.058;5.378;2023-10-09T15:05:50;21.20;99.90
44229;DHT22;29904;51.058;5.378;2023-10-09T15:08:15;21.20;99.90
44229;DHT22;29904;51.058;5.378;2023-10-09T15:10:48;21.30;99.90
44229;DHT22;29904;51.058;5.378;2023-10-09T15:13:15;21.30;99.90
44229;DHT22;29904;51.058;5.378;2023-10-09T15:15:44;21.40;99.90
44229;DHT22;29904;51.058;5.378;2023-10-09T15:18:12;21.50;99.90
44229;DHT22;29904;51.058;5.378;2023-10-09T15:20:39;21.60;99.90
44229;DHT22;29904;51.058;5.378;2023-10-09T15:23:08;21.80;99.90
44229;DHT22;29904;51.058;5.378;2023-10-09T15:25:36;21.90;99.90
44229;DHT22;29904;51.058;5.378;2023-10-09T15:28:08;22.00;99.90
44229;DHT22;29904;51.058;5.378;2023-10-09T15:30:35;22.00;99.90
44229;DHT22;29904;51.058;5.378;2023-10-09T15:33:05;22.00;99.90
44229;DHT22;29904;51.058;5.378;2023-10-09T15:35:31;21.90;99.90
44229;DHT22;29904;51.058;5.378;2023-10-09T15:38:03;21.80;99.90
44229;DHT22;29904;51.058;5.378;2023-10-09T15:40:33;21.70;99.90
44229;DHT22;29904;51.058;5.378;2023-10-09T15:43:03;21.60;99.90
44229;DHT22;29904;51.058;5.378;2023-10-09T15:45:30;21.50;99.90
44229;DHT22;29904;51.058;5.378;2023-10-09T15:47:57;21.50;99.90
44229;DHT22;29904;51.058;5.378;2023-10-09T15:50:27;21.40;99.90
44229;DHT22;29904;51.058;5.378;2023-10-09T15:52:52;21.40;99.90
44229;DHT22;29904;51.058;5.378;2023-10-09T15:55:20;21.40;99.90
44229;DHT22;29904;51.058;5.378;2023-10-09T15:57:54;21.40;99.90
44229;DHT22;29904;51.058;5.378;2023-10-09T16:00:23;21.40;99.90
44229;DHT22;29904;51.058;5.378;2023-10-09T16:02:54;21.40;99.90
44229;DHT22;29904;51.058;5.378;2023-10-09T16:05:21;21.20;99.90
44229;DHT22;29904;51.058;5.378;2023-10-09T16:07:51;21.20;99.90
44229;DHT22;29904;51.058;5.378;2023-10-09T16:10:19;21.20;99.90
44229;DHT22;29904;51.058;5.378;2023-10-09T16:12:48;21.10;99.90
44229;DHT22;29904;51.058;5.378;2023-10-09T16:15:16;21.00;99.90
44229;DHT22;29904;51.058;5.378;2023-10-09T16:17:46;20.90;99.90
44229;DHT22;29904;51.058;5.378;2023-10-09T16:20:13;20.80;99.90
44229;DHT22;29904;51.058;5.378;2023-10-09T16:22:48;20.60;99.90
44229;DHT22;29904;51.058;5.378;2023-10-09T16:25:15;20.50;99.90
44229;DHT22;29904;51.058;5.378;2023-10-09T16:27:43;20.40;99.90
44229;DHT22;29904;51.058;5.378;2023-10-09T16:30:17;20.30;99.90
44229;DHT22;29904;51.058;5.378;2023-10-09T16:32:51;20.20;99.90